Terminal Aerodrome Forecast
Issued by NWS

Home | Current Version | Previous Version | Graphics & Text | Print | Product List | Glossary On
Versions: 1 2 3 4 5 6 7 8 9 10 11 12 13 14 15 16 17
000
FTUS43 KTOP 190800 AAB
TAFFOE
TAF AMD
KFOE 190847Z 1909/2006 27012KT 6SM -RA BKN110
     FM191000 14005KT P6SM VCTS BKN070CB
     FM191400 14007KT P6SM BKN130=

USA.gov is the U.S. government's official web portal to all federal, state and local government web resources and services.